Time;durP1;ratioP1;P1;durP2;ratioP2;P2;SDS_P1;SDS_P2;PMS_P1;PMS_P2;Temp;Humidity;BMP_temperature;BMP_pressure;BME280_temperature;BME280_humidity;BME280_pressure;Samples;Min_cycle;Max_cycle;Signal;HPM_P1;HPM_P2
2022/06/03 00:02:08;;;;;;;6.75;5.30;;;;;;;13.04;68.84;101150.00;6125963;23;20056;-87
2022/06/03 00:04:49;;;;;;;8.02;5.30;;;;;;;12.98;69.16;101152.44;6125814;23;20018;-87
2022/06/03 00:07:34;;;;;;;10.25;5.80;;;;;;;13.04;68.84;101162.31;6126822;23;20022;-87
2022/06/03 00:10:37;;;;;;;6.25;5.65;;;;;;;12.98;69.47;101152.44;6126038;23;20053;-88
2022/06/03 00:13:21;;;;;;;7.53;5.63;;;;;;;12.95;69.13;101156.22;6141092;23;20092;-88
2022/06/03 00:15:59;;;;;;;9.52;5.65;;;;;;;12.93;69.43;101150.28;6125809;23;20045;-85
2022/06/03 00:18:51;;;;;;;6.53;5.80;;;;;;;12.91;69.42;101145.19;6125271;23;20402;-88
2022/06/03 00:21:37;;;;;;;6.10;5.50;;;;;;;12.86;69.26;101155.34;6125436;23;20288;-88
2022/06/03 00:24:23;;;;;;;6.43;5.32;;;;;;;12.75;70.03;101145.16;6124876;23;20060;-88
2022/06/03 00:27:08;;;;;;;6.20;5.60;;;;;;;12.81;69.84;101159.44;6125784;23;20022;-88
2022/06/03 00:29:51;;;;;;;7.38;5.75;;;;;;;12.71;69.54;101146.44;6125670;23;20049;-88
2022/06/03 00:32:32;;;;;;;9.85;6.03;;;;;;;12.78;69.57;101160.56;6125709;23;20030;-88
2022/06/03 00:35:20;;;;;;;6.63;5.93;;;;;;;12.77;69.76;101158.09;6125829;23;20033;-88
2022/06/03 00:37:50;;;;;;;9.60;5.70;;;;;;;12.73;70.45;101159.41;6122552;23;20505;-88
2022/06/03 00:40:43;;;;;;;7.07;5.80;;;;;;;12.63;71.13;101156.91;6125525;23;20056;-87
2022/06/03 00:43:36;;;;;;;8.35;6.00;;;;;;;12.59;71.41;101155.56;6125535;23;20065;-88
2022/06/03 00:46:12;;;;;;;;;;;;;;;12.56;71.20;101161.94;6124932;23;20036;-87
2022/06/03 00:48:49;;;;;;;7.28;6.35;;;;;;;12.55;70.96;101159.47;6124987;23;19917;-88
2022/06/03 00:51:34;;;;;;;6.63;6.03;;;;;;;12.48;71.63;101142.72;6125176;23;20026;-88
2022/06/03 00:54:39;;;;;;;6.90;6.00;;;;;;;12.49;71.46;101145.19;6125912;23;20049;-88
2022/06/03 00:57:36;;;;;;;6.50;5.68;;;;;;;12.46;72.08;101155.16;6118773;23;20026;-88
2022/06/03 01:00:17;;;;;;;6.72;6.03;;;;;;;12.38;72.28;101155.09;6125828;23;20030;-85
2022/06/03 01:03:15;;;;;;;7.82;5.95;;;;;;;12.37;72.47;101142.97;6124178;23;20026;-85
2022/06/03 01:06:14;;;;;;;7.85;6.25;;;;;;;12.30;72.83;101146.19;6125108;23;20037;-85
2022/06/03 01:08:57;;;;;;;7.03;6.20;;;;;;;12.19;73.21;101137.78;6124946;23;20022;-86
2022/06/03 01:11:30;;;;;;;;;;;;;;;12.14;73.90;101140.06;6127487;23;20026;-86
2022/06/03 01:14:04;;;;;;;;;;;;;;;12.11;74.30;101149.03;6126305;23;19917;-86
2022/06/03 01:16:45;;;;;;;9.23;6.18;;;;;;;12.04;74.01;101148.00;6126179;23;19917;-85
2022/06/03 01:19:26;;;;;;;7.88;6.18;;;;;;;12.03;74.49;101138.50;6125252;23;20026;-86
2022/06/03 01:22:08;;;;;;;6.80;6.10;;;;;;;11.94;75.04;101139.41;6125517;23;20026;-86
2022/06/03 01:25:03;;;;;;;9.60;6.10;;;;;;;11.86;75.55;101141.97;6125884;23;20140;-86
2022/06/03 01:28:19;;;;;;;8.80;6.30;;;;;;;11.80;76.07;101139.97;6131741;23;20030;-86
2022/06/03 01:31:07;;;;;;;7.15;6.38;;;;;;;11.73;76.05;101139.72;6126017;23;20029;-87
2022/06/03 01:33:46;;;;;;;8.63;6.32;;;;;;;11.67;76.57;101142.94;6126566;23;20057;-86
2022/06/03 01:36:31;;;;;;;7.20;6.50;;;;;;;11.62;76.78;101143.38;6126717;23;20037;-86
2022/06/03 01:39:31;;;;;;;7.43;6.72;;;;;;;11.51;76.51;101140.97;6126086;23;20423;-86
2022/06/03 01:42:28;;;;;;;7.97;6.47;;;;;;;11.54;76.72;101138.06;6138931;23;20022;-86
2022/06/03 01:45:12;;;;;;;7.50;6.53;;;;;;;11.47;76.69;101129.16;6125542;23;20021;-86
2022/06/03 01:48:08;;;;;;;7.30;6.47;;;;;;;11.53;76.21;101131.16;6125161;23;20033;-86
2022/06/03 01:50:58;;;;;;;9.07;7.03;;;;;;;11.29;76.39;101081.19;6126800;23;20033;-86
2022/06/03 01:53:58;;;;;;;9.38;7.68;;;;;;;11.44;76.92;101115.50;6125538;23;20033;-86
2022/06/03 01:56:47;;;;;;;10.07;7.25;;;;;;;11.44;77.46;101120.75;6127192;23;20029;-86
2022/06/03 01:59:52;;;;;;;8.27;7.32;;;;;;;11.40;77.76;101125.47;6125679;23;20033;-86
2022/06/03 02:02:48;;;;;;;9.40;7.63;;;;;;;11.34;78.18;101125.28;6126625;23;20451;-86
2022/06/03 02:05:32;;;;;;;10.48;7.10;;;;;;;11.26;78.34;101112.91;6126551;23;20029;-86
2022/06/03 02:08:31;;;;;;;10.52;7.75;;;;;;;11.25;78.29;101119.94;6126336;23;20021;-87
2022/06/03 02:11:31;;;;;;;10.05;7.72;;;;;;;11.07;78.77;101098.13;6127463;23;20026;-87
2022/06/03 02:14:37;;;;;;;11.43;7.43;;;;;;;11.17;78.98;101111.16;6128482;23;20023;-87
2022/06/03 02:17:36;;;;;;;10.25;7.38;;;;;;;11.11;79.58;101104.72;6039272;23;20027;-87
2022/06/03 02:20:28;;;;;;;14.45;8.13;;;;;;;11.10;79.34;101097.00;6126065;23;20018;-87
2022/06/03 02:23:27;;;;;;;9.00;7.40;;;;;;;11.07;79.68;101105.16;6128420;23;20088;-87
2022/06/03 02:26:41;;;;;;;11.55;7.97;;;;;;;11.02;80.33;101100.38;6128760;22;20044;-87
2022/06/03 02:32:52;;;;;;;13.80;7.85;;;;;;;11.03;80.08;101098.56;6129641;23;20037;-87
2022/06/03 02:35:31;;;;;;;9.82;7.78;;;;;;;11.01;80.18;101108.38;6102041;23;20056;-86
2022/06/03 02:38:34;;;;;;;13.38;7.63;;;;;;;10.92;80.28;101100.41;6102133;23;20026;-86
2022/06/03 02:41:47;;;;;;;11.75;7.50;;;;;;;10.88;80.05;101100.84;6106298;23;20076;-86
2022/06/03 02:44:39;;;;;;;11.68;7.53;;;;;;;10.80;80.33;101093.75;6115111;23;20037;-87
2022/06/03 02:47:41;;;;;;;10.27;7.65;;;;;;;10.77;81.07;101086.19;6118553;23;20046;-86
2022/06/03 02:50:26;;;;;;;8.52;7.65;;;;;;;10.76;81.68;101086.34;6118072;23;20029;-87
2022/06/03 02:53:46;;;;;;;10.70;7.85;;;;;;;10.74;81.26;101077.81;6118394;23;20022;-86
2022/06/03 02:56:33;;;;;;;8.98;7.55;;;;;;;10.74;81.46;101081.25;6143129;23;20034;-86
2022/06/03 02:59:19;;;;;;;9.82;7.55;;;;;;;10.73;81.93;101077.00;6118472;23;20018;-87
2022/06/03 03:02:01;;;;;;;12.10;7.90;;;;;;;10.74;81.50;101080.44;6118806;23;20049;-86
2022/06/03 03:04:56;;;;;;;9.73;7.90;;;;;;;10.70;81.51;101074.66;6118403;23;20057;-86
2022/06/03 03:07:44;;;;;;;8.77;7.47;;;;;;;10.72;81.41;101087.59;6114825;23;20017;-85
2022/06/03 03:10:30;;;;;;;11.85;7.57;;;;;;;10.72;81.59;101093.66;6118100;23;20041;-86
2022/06/03 03:13:15;;;;;;;9.48;7.55;;;;;;;10.67;81.87;101090.66;6118158;23;20010;-88
2022/06/03 03:16:13;;;;;;;9.30;7.75;;;;;;;10.67;82.11;101090.66;6119236;23;20010;-87
2022/06/03 03:19:21;;;;;;;9.73;7.68;;;;;;;10.64;82.10;101080.47;6107224;23;20084;-87
2022/06/03 03:22:20;;;;;;;10.23;8.07;;;;;;;10.63;81.70;101089.28;6086813;23;20356;-87
2022/06/03 03:25:05;;;;;;;9.65;8.00;;;;;;;10.62;82.11;101087.66;6127029;23;20065;-88
2022/06/03 03:27:59;;;;;;;10.57;7.10;;;;;;;10.67;81.85;101090.66;6099511;23;20030;-87
2022/06/03 03:30:31;;;;;;;10.20;7.70;;;;;;;10.61;81.63;101083.38;6099342;23;20105;-87
2022/06/03 03:33:15;;;;;;;9.63;7.10;;;;;;;10.60;81.78;101085.16;6104624;23;20074;-87
2022/06/03 03:36:12;;;;;;;9.35;6.88;;;;;;;10.61;81.70;101081.59;6129801;23;20436;-87
2022/06/03 03:39:09;;;;;;;10.52;7.40;;;;;;;10.60;81.94;101086.97;6154004;23;20030;-87
2022/06/03 03:42:21;;;;;;;9.68;8.63;;;;;;;10.60;81.94;101086.97;6129693;23;20056;-87
2022/06/03 03:45:31;;;;;;;11.95;7.60;;;;;;;10.62;82.06;101082.41;6154954;23;20022;-87
2022/06/03 03:48:29;;;;;;;11.30;7.80;;;;;;;10.66;81.83;101086.38;6127824;23;20022;-87
2022/06/03 03:51:28;;;;;;;13.93;7.68;;;;;;;10.76;81.96;101081.09;6128840;23;20395;-87
2022/06/03 03:54:33;;;;;;;12.15;7.00;;;;;;;10.80;81.42;101082.47;6127593;23;20023;-87
2022/06/03 03:57:28;;;;;;;10.02;7.40;;;;;;;10.89;81.14;101082.38;6144373;23;20022;-87
2022/06/03 04:00:44;;;;;;;8.63;7.70;;;;;;;11.46;79.32;101069.84;6099762;23;20050;-87
2022/06/03 04:03:49;;;;;;;11.85;6.78;;;;;;;12.93;72.81;101067.06;6126299;23;20025;-87
2022/06/03 04:06:45;;;;;;;10.63;6.43;;;;;;;14.12;67.81;101064.78;6132234;23;20010;-87
2022/06/03 04:09:56;;;;;;;11.75;6.35;;;;;;;15.10;64.31;101067.00;6126133;23;20026;-88
2022/06/03 04:12:51;;;;;;;9.10;6.05;;;;;;;15.91;61.14;101061.09;6187774;23;20088;-87
2022/06/03 04:15:55;;;;;;;7.50;6.75;;;;;;;16.40;59.16;101055.25;6104021;23;20083;-87
2022/06/03 04:19:08;;;;;;;8.50;5.55;;;;;;;16.67;57.71;101059.06;6128694;23;20101;-87
2022/06/03 04:21:58;;;;;;;7.07;6.07;;;;;;;16.36;58.39;101057.44;6112783;23;20026;-87
2022/06/03 04:24:58;;;;;;;6.20;5.60;;;;;;;16.55;57.46;101051.59;6127228;23;20273;-88
2022/06/03 04:28:06;;;;;;;5.95;5.38;;;;;;;17.42;55.83;101058.63;6127786;23;20006;-86
2022/06/03 04:31:03;;;;;;;6.75;5.97;;;;;;;17.27;54.73;101056.06;6127178;23;20029;-86
2022/06/03 04:34:10;;;;;;;8.30;6.00;;;;;;;17.30;55.37;101050.38;6127072;23;20026;-86
2022/06/03 04:37:21;;;;;;;9.38;5.82;;;;;;;16.76;56.79;101053.50;6127112;23;20033;-86
2022/06/03 04:40:39;;;;;;;11.30;5.95;;;;;;;16.42;58.35;101058.53;6129644;23;20022;-85
2022/06/03 04:43:53;;;;;;;8.02;6.93;;;;;;;16.20;58.73;101049.72;6153178;23;20033;-86
2022/06/03 04:46:58;;;;;;;11.40;6.30;;;;;;;16.94;57.20;101068.13;6128105;23;20018;-86
2022/06/03 04:50:04;;;;;;;9.90;6.05;;;;;;;17.04;56.83;101058.88;6129336;23;20022;-86
2022/06/03 04:53:09;;;;;;;10.65;6.18;;;;;;;16.68;57.12;101052.78;6104518;23;20065;-86
2022/06/03 04:56:12;;;;;;;7.82;6.25;;;;;;;16.40;58.26;101060.53;6127802;22;20022;-86
2022/06/03 04:59:23;;;;;;;9.05;5.95;;;;;;;16.49;58.13;101054.16;6127378;23;20032;-86
2022/06/03 05:02:33;;;;;;;7.95;5.78;;;;;;;16.46;57.56;101049.25;6127995;23;20033;-86
2022/06/03 05:05:50;;;;;;;10.13;5.70;;;;;;;17.04;56.72;101053.59;6127217;23;20022;-86
2022/06/03 05:08:55;;;;;;;10.50;5.80;;;;;;;17.34;55.50;101054.28;6128173;23;20335;-86
2022/06/03 05:11:57;;;;;;;7.05;5.30;;;;;;;17.65;53.16;101055.75;6127505;23;20037;-86
2022/06/03 05:15:03;;;;;;;7.50;4.90;;;;;;;18.11;51.64;101053.44;6128000;23;20025;-86
2022/06/03 05:18:05;;;;;;;11.63;4.85;;;;;;;18.33;51.46;101048.91;6127195;23;20478;-87
2022/06/03 05:20:55;;;;;;;8.77;4.90;;;;;;;19.28;48.63;101043.47;6126834;23;20125;-87
2022/06/03 05:23:52;;;;;;;6.18;4.60;;;;;;;20.66;46.29;101046.94;6127639;23;20053;-89
2022/06/03 05:26:36;;;;;;;6.20;4.47;;;;;;;20.38;45.01;101031.28;6126418;22;20025;-89
2022/06/03 05:29:50;;;;;;;10.32;4.68;;;;;;;21.54;42.90;101045.13;6125533;23;20048;-89
2022/06/03 05:32:58;;;;;;;6.07;4.57;;;;;;;20.42;44.77;101029.84;6037111;23;20034;-89
2022/06/03 05:35:49;;;;;;;4.90;4.35;;;;;;;20.77;43.08;101030.31;6085494;23;20022;-89
2022/06/03 05:38:44;;;;;;;8.43;4.25;;;;;;;22.30;41.65;101033.31;6126191;23;20026;-89
2022/06/03 05:44:40;;;;;;;6.97;4.65;;;;;;;22.09;41.08;101027.41;6126069;23;20036;-90
2022/06/03 05:47:12;;;;;;;5.53;4.75;;;;;;;23.52;39.47;101033.84;6125639;23;20022;-90
2022/06/03 05:49:44;;;;;;;;;;;;;;;23.57;39.12;101042.81;6126322;23;20025;-89
2022/06/03 05:52:36;;;;;;;14.73;4.60;;;;;;;24.14;38.57;101024.28;6127341;23;20322;-90
2022/06/03 05:55:16;;;;;;;7.93;4.57;;;;;;;23.90;38.28;101020.84;6134488;23;20026;-91
2022/06/03 05:58:00;;;;;;;6.88;4.63;;;;;;;23.73;38.43;101027.94;6127145;23;20022;-91
2022/06/03 06:00:49;;;;;;;10.48;4.78;;;;;;;24.27;38.67;101012.53;6126775;23;20025;-90
2022/06/03 06:03:35;;;;;;;5.90;4.45;;;;;;;24.11;38.11;101014.84;6125060;23;20025;-90
2022/06/03 06:06:15;;;;;;;9.68;4.80;;;;;;;23.02;40.55;101012.88;6124856;23;20076;-91
2022/06/03 06:08:51;;;;;;;7.30;4.53;;;;;;;22.95;40.93;101007.63;6123987;23;20057;-91
2022/06/03 06:11:29;;;;;;;9.68;5.00;;;;;;;22.46;42.05;101006.03;6124897;23;20053;-90
2022/06/03 06:14:30;;;;;;;6.88;4.32;;;;;;;23.90;39.78;100998.66;6129857;23;20034;-93
2022/06/03 06:17:00;;;;;;;8.13;4.60;;;;;;;24.66;38.40;101011.69;6135023;22;20018;-83
2022/06/03 06:19:39;;;;;;;15.32;5.78;;;;;;;24.73;37.82;101011.53;6126401;23;20094;-84
2022/06/03 06:22:16;;;;;;;10.65;4.32;;;;;;;24.23;38.11;101009.50;6127441;23;20032;-83
2022/06/03 06:24:57;;;;;;;11.77;4.70;;;;;;;24.93;37.18;101001.19;6125872;23;20021;-83
2022/06/03 06:28:00;;;;;;;8.30;4.90;;;;;;;24.61;36.97;100998.22;6121611;23;20075;-84
2022/06/03 06:33:34;;;;;;;6.93;4.72;;;;;;;25.08;35.15;100997.97;6186636;23;20306;-82
2022/06/03 06:36:30;;;;;;;8.43;5.07;;;;;;;24.25;36.30;100993.22;6188861;23;20025;-81
2022/06/03 06:39:09;;;;;;;8.30;4.18;;;;;;;24.48;36.87;100993.97;6187595;22;20024;-82
2022/06/03 06:41:54;;;;;;;4.78;4.18;;;;;;;24.31;35.51;100986.94;6176683;23;20030;-82
2022/06/03 06:44:35;;;;;;;5.47;4.40;;;;;;;23.99;36.27;100989.22;6161886;23;20021;-83
2022/06/03 06:47:14;;;;;;;5.32;3.90;;;;;;;23.41;37.61;101009.56;6165444;23;20022;-80
2022/06/03 06:49:49;;;;;;;8.88;4.22;;;;;;;24.53;36.17;101001.28;6162659;23;20077;-82
2022/06/03 06:52:38;;;;;;;7.60;4.03;;;;;;;23.30;37.53;101006.88;6160947;23;20032;-82
2022/06/03 06:55:11;;;;;;;5.50;3.50;;;;;;;23.40;36.63;101013.28;6163402;23;20040;-83
2022/06/03 06:57:46;;;;;;;6.05;3.20;;;;;;;24.63;34.46;101017.50;6162636;23;20026;-82
2022/06/03 07:00:24;;;;;;;4.40;3.15;;;;;;;25.24;33.39;101023.97;6162432;23;20067;-82
2022/06/03 07:02:54;;;;;;;7.85;3.25;;;;;;;24.99;33.37;101016.31;6161663;23;20025;-81
2022/06/03 07:05:28;;;;;;;5.85;3.45;;;;;;;25.48;33.78;101019.25;6163395;23;20037;-81
2022/06/03 07:08:00;;;;;;;3.42;3.13;;;;;;;26.02;33.18;101009.56;6161385;23;20029;-81
2022/06/03 07:10:27;;;;;;;;;;;;;;;26.09;32.62;101026.28;6163133;23;20026;-80
2022/06/03 07:13:01;;;;;;;3.75;3.40;;;;;;;24.62;33.27;101009.72;6164667;23;19923;-80
2022/06/03 07:15:41;;;;;;;4.55;3.28;;;;;;;25.96;33.00;101015.13;6162722;23;20074;-82
2022/06/03 07:24:24;;;;;;;4.55;3.30;;;;;;;25.04;32.52;100994.19;6159430;23;20025;-82
2022/06/03 07:26:57;;;;;;;4.00;3.30;;;;;;;25.01;32.10;100981.28;6165049;23;20022;-81
2022/06/03 07:29:35;;;;;;;6.60;3.58;;;;;;;25.18;33.03;100987.44;6163683;23;20097;-81
2022/06/03 07:32:09;;;;;;;4.75;3.25;;;;;;;26.49;31.96;100973.34;6165828;23;20029;-80
2022/06/03 07:34:43;;;;;;;5.70;3.30;;;;;;;25.44;32.99;100992.13;6163852;23;20126;-81
2022/06/03 07:37:19;;;;;;;3.88;3.00;;;;;;;26.90;32.26;100967.31;6163161;23;20056;-81
2022/06/03 07:39:57;;;;;;;4.05;3.40;;;;;;;27.92;30.27;100982.22;6164476;23;20022;-81
2022/06/03 07:42:34;;;;;;;8.38;3.42;;;;;;;27.25;29.71;100982.94;6164258;23;20052;-82
2022/06/03 07:45:26;;;;;;;5.35;3.50;;;;;;;25.07;32.39;100959.69;6165470;23;20540;-83
2022/06/03 07:47:54;;;;;;;6.13;3.40;;;;;;;26.13;30.88;100962.22;6164447;23;20055;-78
2022/06/03 07:50:21;;;;;;;6.63;3.13;;;;;;;26.89;31.12;100960.34;6165758;23;20021;-82
2022/06/03 07:52:54;;;;;;;7.18;3.20;;;;;;;27.11;30.24;100979.06;6161315;23;20026;-83
2022/06/03 07:55:23;;;;;;;4.85;3.30;;;;;;;25.81;31.67;100972.84;6154801;23;20114;-79
2022/06/03 07:57:52;;;;;;;5.50;3.30;;;;;;;26.22;31.38;100976.81;6152453;23;20343;-79
2022/06/03 08:00:22;;;;;;;5.28;3.13;;;;;;;26.34;31.66;100968.66;6148798;23;20029;-79
2022/06/03 08:03:01;;;;;;;8.18;3.25;;;;;;;26.70;31.60;100959.88;6149836;23;20029;-79
2022/06/03 08:05:28;;;;;;;5.93;3.33;;;;;;;27.13;30.76;100960.81;6148983;23;20032;-77
2022/06/03 08:11:00;;;;;;;4.05;3.22;;;;;;;27.82;28.89;100944.56;6151045;23;20029;-79
2022/06/03 08:13:31;;;;;;;7.00;3.35;;;;;;;26.95;31.64;100939.69;6153754;23;20032;-80
2022/06/03 08:16:02;;;;;;;4.85;3.17;;;;;;;26.26;31.43;100943.06;6154737;23;20017;-79
2022/06/03 08:18:33;;;;;;;3.50;3.17;;;;;;;26.55;30.55;100935.59;6152420;23;20076;-80
2022/06/03 08:21:04;;;;;;;4.43;3.05;;;;;;;26.44;31.23;100931.22;6152845;23;20017;-78
2022/06/03 08:23:33;;;;;;;5.00;3.33;;;;;;;25.74;32.16;100942.72;6154888;23;20057;-80
2022/06/03 08:26:05;;;;;;;4.95;3.42;;;;;;;26.11;31.87;100930.28;6153895;23;20340;-80
2022/06/03 08:28:35;;;;;;;6.43;3.33;;;;;;;25.85;32.13;100940.97;6151828;23;20060;-79
2022/06/03 08:31:06;;;;;;;5.88;3.30;;;;;;;25.69;31.95;100934.59;6148447;23;20057;-78
2022/06/03 08:33:41;;;;;;;7.03;3.50;;;;;;;25.34;32.19;100940.28;6152342;23;20044;-80
2022/06/03 08:36:12;;;;;;;6.72;3.40;;;;;;;26.52;30.88;100937.97;6150815;23;20388;-79
2022/06/03 08:38:43;;;;;;;4.18;3.10;;;;;;;27.08;31.84;100941.97;6150268;23;20303;-79
2022/06/03 08:41:26;;;;;;;6.13;3.40;;;;;;;26.33;30.84;100934.84;6151007;23;20029;-78
2022/06/03 08:44:08;;;;;;;5.65;3.30;;;;;;;26.72;30.63;100928.22;6149361;23;20026;-79
2022/06/03 08:46:38;;;;;;;;;;;;;;;25.81;30.91;100938.00;6149960;23;20014;-78
2022/06/03 08:49:10;;;;;;;5.88;3.20;;;;;;;26.00;30.50;100936.59;6148892;23;19994;-79
2022/06/03 08:51:44;;;;;;;5.47;3.20;;;;;;;25.64;31.60;100937.22;6151368;23;20036;-80
2022/06/03 08:54:27;;;;;;;3.70;3.30;;;;;;;24.97;32.85;100927.41;6153072;23;20025;-80
2022/06/03 08:56:57;;;;;;;6.57;3.38;;;;;;;25.14;32.36;100928.19;6153085;22;20028;-79
2022/06/03 08:59:30;;;;;;;3.90;3.10;;;;;;;25.17;32.27;100926.91;6153220;22;20068;-80
2022/06/03 09:02:03;;;;;;;5.63;3.30;;;;;;;25.90;31.01;100925.78;6156137;23;20126;-81
2022/06/03 09:04:35;;;;;;;8.23;2.97;;;;;;;25.87;32.63;100926.28;6155929;23;20030;-79
2022/06/03 09:07:07;;;;;;;5.18;3.25;;;;;;;25.58;33.31;100919.41;6153642;23;20041;-81
2022/06/03 09:09:37;;;;;;;;;;;;;;;25.08;33.61;100928.34;6156924;23;20033;-80
2022/06/03 09:12:12;;;;;;;3.55;2.90;;;;;;;25.20;33.34;100931.75;6161276;23;19917;-81
2022/06/03 09:14:44;;;;;;;3.92;3.00;;;;;;;25.45;33.67;100929.47;6153665;23;20482;-81
2022/06/03 09:17:29;;;;;;;3.17;2.87;;;;;;;25.34;32.58;100933.06;6152829;23;20029;-81
2022/06/03 09:20:08;;;;;;;3.53;3.15;;;;;;;24.89;32.44;100925.09;6153738;23;20283;-81
2022/06/03 09:22:35;;;;;;;6.10;3.00;;;;;;;24.91;33.31;100927.53;6155245;23;20022;-81
2022/06/03 09:25:06;;;;;;;5.28;3.17;;;;;;;24.88;33.71;100922.69;6150978;23;20026;-83
2022/06/03 09:27:35;;;;;;;6.22;3.25;;;;;;;25.37;31.94;100924.53;6151915;23;20022;-81
2022/06/03 09:30:05;;;;;;;6.13;3.15;;;;;;;25.37;32.17;100913.81;6151875;23;20233;-81
2022/06/03 09:32:39;;;;;;;4.05;3.65;;;;;;;24.71;32.74;100923.47;6152301;23;20061;-81
2022/06/03 09:35:10;;;;;;;5.43;3.30;;;;;;;25.22;31.82;100926.16;6155614;23;20025;-81
2022/06/03 09:37:45;;;;;;;5.25;3.08;;;;;;;25.03;33.69;100914.94;6154313;23;20240;-81
2022/06/03 09:40:20;;;;;;;5.18;3.40;;;;;;;26.41;33.50;100918.31;6158314;23;20495;-82
2022/06/03 09:42:56;;;;;;;6.45;4.05;;;;;;;26.03;31.36;100903.91;6158733;23;20031;-82
2022/06/03 09:45:25;;;;;;;4.43;3.60;;;;;;;25.48;31.96;100903.25;6156519;23;20025;-83
2022/06/03 09:47:54;;;;;;;6.40;3.70;;;;;;;26.21;32.88;100904.66;6156940;23;20017;-81
2022/06/03 09:50:26;;;;;;;5.57;3.10;;;;;;;25.79;32.15;100898.03;6157565;23;20072;-80
2022/06/03 09:53:33;;;;;;;6.43;3.40;;;;;;;24.71;32.88;100896.72;6155498;23;20250;-79
2022/06/03 09:56:07;;;;;;;4.90;3.15;;;;;;;25.10;33.44;100896.78;6154323;23;20057;-82
2022/06/03 09:58:35;;;;;;;6.15;3.55;;;;;;;25.60;33.75;100888.63;6154046;23;20134;-81
2022/06/03 10:01:03;;;;;;;7.03;3.80;;;;;;;25.79;31.89;100891.84;6154905;23;20387;-81
2022/06/03 10:03:33;;;;;;;4.70;3.40;;;;;;;25.65;33.70;100890.59;6155454;23;20059;-80
2022/06/03 10:06:00;;;;;;;6.40;3.60;;;;;;;25.88;33.05;100890.34;6155445;23;20086;-80
2022/06/03 10:12:48;;;;;;;6.10;3.75;;;;;;;24.71;34.44;100886.00;6154108;23;20743;-80
2022/06/03 10:14:03;;;;;;;3.95;3.53;;;;;;;24.90;34.15;100886.59;6155937;23;20080;-80
2022/06/03 10:16:30;;;;;;;6.03;3.60;;;;;;;24.75;35.42;100881.78;6165140;23;20073;-80
2022/06/03 10:18:58;;;;;;;4.72;3.60;;;;;;;24.51;35.24;100879.53;6158471;23;20022;-81
2022/06/03 10:21:33;;;;;;;4.25;3.40;;;;;;;24.89;34.28;100874.25;6155884;23;20026;-81
2022/06/03 10:24:03;;;;;;;3.90;3.50;;;;;;;24.24;35.36;100869.41;6154352;23;20448;-80
2022/06/03 10:26:35;;;;;;;4.90;3.33;;;;;;;24.91;35.50;100874.00;6155987;23;20021;-81
2022/06/03 10:29:07;;;;;;;4.40;3.25;;;;;;;25.26;34.44;100861.16;6156369;23;20056;-82
2022/06/03 10:31:36;;;;;;;3.95;3.58;;;;;;;25.48;34.69;100868.41;6156907;23;20053;-81
2022/06/03 10:34:10;;;;;;;4.60;3.25;;;;;;;25.30;34.24;100862.28;6158305;23;20025;-80
2022/06/03 10:36:39;;;;;;;4.43;3.78;;;;;;;25.24;34.36;100868.63;6154855;23;20105;-81
2022/06/03 10:39:09;;;;;;;6.72;3.67;;;;;;;26.02;33.36;100862.06;6154395;23;20049;-80
2022/06/03 10:41:43;;;;;;;4.05;3.47;;;;;;;26.05;33.54;100858.88;6156211;23;20064;-79
2022/06/03 10:44:15;;;;;;;4.60;3.58;;;;;;;26.62;32.34;100869.09;6155756;23;20025;-81
2022/06/03 10:46:53;;;;;;;4.85;3.35;;;;;;;26.11;32.92;100857.88;6157242;23;20045;-82
2022/06/03 10:49:23;;;;;;;5.82;3.42;;;;;;;26.26;32.93;100856.41;6158607;23;20040;-82
2022/06/03 11:03:07;;;;;;;4.60;3.50;;;;;;;25.05;34.86;100845.84;6155966;23;20024;-81
2022/06/03 11:05:38;;;;;;;4.47;3.20;;;;;;;25.18;34.58;100842.81;6156982;23;20032;-82
2022/06/03 11:08:08;;;;;;;4.63;3.30;;;;;;;25.77;33.63;100840.38;6159600;23;20435;-81
2022/06/03 11:10:40;;;;;;;4.47;3.17;;;;;;;25.87;33.10;100827.09;6161389;23;20067;-81
2022/06/03 11:13:09;;;;;;;4.30;3.45;;;;;;;26.09;33.29;100838.53;6161918;23;20096;-80
2022/06/03 11:15:39;;;;;;;6.97;3.40;;;;;;;26.18;33.47;100835.41;6159026;23;20172;-82
2022/06/03 11:18:18;;;;;;;5.07;3.47;;;;;;;26.86;31.38;100836.53;6157560;23;20029;-82
2022/06/03 11:20:48;;;;;;;3.45;3.15;;;;;;;27.00;31.78;100833.13;6155467;23;20469;-82
2022/06/03 11:23:16;;;;;;;5.05;3.20;;;;;;;27.32;32.09;100824.19;6162680;23;20049;-82
2022/06/03 11:25:46;;;;;;;3.72;3.15;;;;;;;26.97;31.44;100820.22;6164269;23;20073;-81
2022/06/03 11:28:18;;;;;;;5.07;3.28;;;;;;;25.98;33.59;100798.50;6162006;23;20025;-81
2022/06/03 11:30:51;;;;;;;7.03;3.70;;;;;;;25.72;33.42;100800.09;6162849;23;20037;-84
2022/06/03 11:33:25;;;;;;;4.80;3.40;;;;;;;26.08;32.70;100809.31;6160833;23;20029;-83
2022/06/03 11:35:58;;;;;;;3.70;3.30;;;;;;;26.06;33.16;100789.97;6160967;23;20073;-83
2022/06/03 11:38:29;;;;;;;4.20;3.35;;;;;;;25.97;33.52;100799.56;6160513;23;20022;-85
2022/06/03 11:41:01;;;;;;;3.95;3.40;;;;;;;25.59;33.35;100797.78;6161352;23;20022;-84
2022/06/03 11:43:36;;;;;;;5.90;3.40;;;;;;;25.31;34.13;100778.19;6167698;23;20385;-85
2022/06/03 11:46:08;;;;;;;6.03;3.60;;;;;;;25.97;34.13;100765.53;6171050;23;20026;-86
2022/06/03 11:48:37;;;;;;;4.03;3.63;;;;;;;25.96;33.19;100765.78;6166314;23;20025;-84
2022/06/03 11:51:07;;;;;;;3.60;3.30;;;;;;;25.57;33.19;100759.72;6163979;23;20081;-84
2022/06/03 11:53:40;;;;;;;7.63;3.50;;;;;;;25.41;33.88;100756.06;6165375;23;20104;-84
2022/06/03 11:56:10;;;;;;;4.97;3.55;;;;;;;25.26;33.90;100759.38;6164405;23;20362;-84
2022/06/03 11:58:49;;;;;;;4.03;3.28;;;;;;;25.76;33.41;100769.88;6162269;23;20067;-83
2022/06/03 12:01:20;;;;;;;5.60;3.55;;;;;;;26.08;33.06;100758.34;6164297;23;20073;-85
2022/06/03 12:03:56;;;;;;;4.20;3.40;;;;;;;26.25;32.88;100753.69;6166463;23;20029;-84
2022/06/03 12:06:33;;;;;;;7.13;3.20;;;;;;;26.78;31.21;100744.66;6165938;22;20361;-82
2022/06/03 12:09:05;;;;;;;5.38;3.40;;;;;;;27.03;31.27;100764.66;6162892;23;20175;-81
2022/06/03 12:15:19;;;;;;;3.47;3.20;;;;;;;26.56;32.06;100772.69;6067733;23;20027;-81
2022/06/03 12:17:47;;;;;;;4.53;3.63;;;;;;;26.02;31.62;100738.72;6067425;23;20030;-81
2022/06/03 12:20:37;;;;;;;3.55;3.25;;;;;;;25.81;32.04;100766.44;6117087;23;20071;-80
2022/06/03 12:23:42;;;;;;;3.50;3.20;;;;;;;26.05;32.50;100761.53;6155742;23;20025;-80
2022/06/03 12:26:16;;;;;;;4.20;3.42;;;;;;;25.93;32.62;100756.38;6152118;23;20026;-80
2022/06/03 12:28:46;;;;;;;5.20;3.33;;;;;;;26.28;32.37;100749.66;6151563;23;20028;-81
2022/06/03 12:31:33;;;;;;;6.25;3.50;;;;;;;26.41;32.40;100765.38;6151029;23;20131;-80
2022/06/03 12:34:11;;;;;;;5.90;3.20;;;;;;;26.26;31.70;100773.25;6235984;22;20059;-83
2022/06/03 12:36:41;;;;;;;3.80;3.20;;;;;;;25.78;32.68;100770.44;6269808;23;20020;-82
2022/06/03 12:39:24;;;;;;;4.40;3.30;;;;;;;26.22;32.40;100769.47;6258998;22;20036;-79
2022/06/03 12:42:05;;;;;;;4.03;3.60;;;;;;;26.68;31.88;100760.69;6249814;23;20357;-81
2022/06/03 12:44:42;;;;;;;5.80;3.25;;;;;;;26.72;31.57;100753.75;6221533;23;20048;-80
2022/06/03 12:47:43;;;;;;;5.78;3.58;;;;;;;26.92;31.64;100765.69;6221270;23;20162;-83
2022/06/03 12:50:32;;;;;;;6.13;3.72;;;;;;;26.75;31.23;100761.28;6222658;23;20025;-82
2022/06/03 12:53:19;;;;;;;4.03;3.30;;;;;;;26.86;31.30;100772.09;6223899;23;20025;-83
2022/06/03 12:55:54;;;;;;;4.50;3.55;;;;;;;26.97;30.73;100758.47;6233758;23;20024;-84
2022/06/03 12:58:44;;;;;;;6.43;3.55;;;;;;;27.00;30.93;100765.19;6234631;23;20021;-84
2022/06/03 13:01:12;;;;;;;3.78;3.40;;;;;;;26.42;31.20;100766.97;6223291;23;20360;-83
2022/06/03 13:03:41;;;;;;;9.63;3.92;;;;;;;26.96;31.49;100758.72;6224973;23;20031;-84
2022/06/03 13:06:09;;;;;;;4.07;3.53;;;;;;;27.31;31.71;100752.69;6224342;23;20394;-85
2022/06/03 13:11:44;;;;;;;4.13;3.60;;;;;;;27.23;34.23;100755.91;6224247;23;20055;-84
2022/06/03 13:14:28;;;;;;;8.82;4.25;;;;;;;26.78;35.93;100758.09;6225439;23;20032;-84
2022/06/03 13:16:55;;;;;;;8.18;3.90;;;;;;;26.54;36.60;100762.22;6223599;23;20340;-83
2022/06/03 13:19:44;;;;;;;5.28;4.40;;;;;;;26.75;36.39;100757.78;6225553;23;20031;-86
2022/06/03 13:22:19;;;;;;;6.93;4.43;;;;;;;26.65;37.13;100750.47;6222143;23;20020;-83